sensor_id;sensor_type;location;lat;lon;timestamp;temperature;humidity
981;DHT22;479;53.514;9.994;2022-08-03T00:02:17;21.80;99.90
981;DHT22;479;53.514;9.994;2022-08-03T00:04:44;21.80;99.90
981;DHT22;479;53.514;9.994;2022-08-03T00:07:12;21.70;99.90
981;DHT22;479;53.514;9.994;2022-08-03T00:09:39;21.70;99.90
981;DHT22;479;53.514;9.994;2022-08-03T00:12:07;21.60;99.90
981;DHT22;479;53.514;9.994;2022-08-03T00:14:34;21.60;99.90
981;DHT22;479;53.514;9.994;2022-08-03T00:17:01;21.50;99.90
981;DHT22;479;53.514;9.994;2022-08-03T00:19:28;21.40;99.90
981;DHT22;479;53.514;9.994;2022-08-03T00:21:54;21.40;99.90
981;DHT22;479;53.514;9.994;2022-08-03T00:24:23;21.40;99.90
981;DHT22;479;53.514;9.994;2022-08-03T00:26:49;21.30;99.90
981;DHT22;479;53.514;9.994;2022-08-03T00:29:16;21.20;99.90
981;DHT22;479;53.514;9.994;2022-08-03T00:31:43;21.20;99.90
981;DHT22;479;53.514;9.994;2022-08-03T00:34:10;21.20;99.90
981;DHT22;479;53.514;9.994;2022-08-03T00:36:37;21.10;99.90
981;DHT22;479;53.514;9.994;2022-08-03T00:39:04;21.00;99.90
981;DHT22;479;53.514;9.994;2022-08-03T00:41:35;21.00;99.90
981;DHT22;479;53.514;9.994;2022-08-03T00:44:02;20.90;99.90
981;DHT22;479;53.514;9.994;2022-08-03T00:46:29;20.90;99.90
981;DHT22;479;53.514;9.994;2022-08-03T00:48:55;20.90;99.90
981;DHT22;479;53.514;9.994;2022-08-03T00:51:23;20.80;99.90
981;DHT22;479;53.514;9.994;2022-08-03T00:53:50;20.80;99.90
981;DHT22;479;53.514;9.994;2022-08-03T00:56:18;20.80;99.90
981;DHT22;479;53.514;9.994;2022-08-03T00:58:46;20.70;99.90
981;DHT22;479;53.514;9.994;2022-08-03T01:01:13;20.70;99.90
981;DHT22;479;53.514;9.994;2022-08-03T01:03:40;20.70;99.90
981;DHT22;479;53.514;9.994;2022-08-03T01:06:14;20.70;99.90
981;DHT22;479;53.514;9.994;2022-08-03T01:08:46;20.70;99.90
981;DHT22;479;53.514;9.994;2022-08-03T01:11:20;20.60;99.90
981;DHT22;479;53.514;9.994;2022-08-03T01:14:00;20.60;99.90
981;DHT22;479;53.514;9.994;2022-08-03T01:16:32;20.60;99.90
981;DHT22;479;53.514;9.994;2022-08-03T01:19:26;20.60;99.90
981;DHT22;479;53.514;9.994;2022-08-03T01:22:07;20.60;99.90
981;DHT22;479;53.514;9.994;2022-08-03T01:24:45;20.60;99.90
981;DHT22;479;53.514;9.994;2022-08-03T01:27:18;20.60;99.90
981;DHT22;479;53.514;9.994;2022-08-03T01:29:58;20.50;99.90
981;DHT22;479;53.514;9.994;2022-08-03T01:32:30;20.50;99.90
981;DHT22;479;53.514;9.994;2022-08-03T01:35:02;20.40;99.90
981;DHT22;479;53.514;9.994;2022-08-03T01:37:36;20.40;99.90
981;DHT22;479;53.514;9.994;2022-08-03T01:40:05;20.30;99.90
981;DHT22;479;53.514;9.994;2022-08-03T01:42:36;20.40;99.90
981;DHT22;479;53.514;9.994;2022-08-03T01:45:07;20.40;99.90
981;DHT22;479;53.514;9.994;2022-08-03T01:47:35;20.30;99.90
981;DHT22;479;53.514;9.994;2022-08-03T01:50:03;20.30;99.90
981;DHT22;479;53.514;9.994;2022-08-03T01:52:31;20.20;99.90
981;DHT22;479;53.514;9.994;2022-08-03T01:55:00;20.20;99.90
981;DHT22;479;53.514;9.994;2022-08-03T01:57:29;20.10;99.90
981;DHT22;479;53.514;9.994;2022-08-03T01:59:58;20.00;99.90
981;DHT22;479;53.514;9.994;2022-08-03T02:02:27;20.00;99.90
981;DHT22;479;53.514;9.994;2022-08-03T02:04:56;20.00;99.90
981;DHT22;479;53.514;9.994;2022-08-03T02:07:25;20.00;99.90
981;DHT22;479;53.514;9.994;2022-08-03T02:09:53;20.00;99.90
981;DHT22;479;53.514;9.994;2022-08-03T02:12:23;20.10;99.90
981;DHT22;479;53.514;9.994;2022-08-03T02:14:50;20.10;99.90
981;DHT22;479;53.514;9.994;2022-08-03T02:17:18;20.10;99.90
981;DHT22;479;53.514;9.994;2022-08-03T02:19:47;20.00;99.90
981;DHT22;479;53.514;9.994;2022-08-03T02:22:16;20.10;99.90
981;DHT22;479;53.514;9.994;2022-08-03T02:24:43;20.10;99.90
981;DHT22;479;53.514;9.994;2022-08-03T02:27:15;20.20;99.90
981;DHT22;479;53.514;9.994;2022-08-03T02:29:46;20.10;99.90
981;DHT22;479;53.514;9.994;2022-08-03T02:32:18;20.10;99.90
981;DHT22;479;53.514;9.994;2022-08-03T02:34:50;20.10;99.90
981;DHT22;479;53.514;9.994;2022-08-03T02:37:19;20.00;99.90
981;DHT22;479;53.514;9.994;2022-08-03T02:39:48;20.00;99.90
981;DHT22;479;53.514;9.994;2022-08-03T02:42:20;19.90;99.90
981;DHT22;479;53.514;9.994;2022-08-03T02:44:49;19.90;99.90
981;DHT22;479;53.514;9.994;2022-08-03T02:47:18;19.90;99.90
981;DHT22;479;53.514;9.994;2022-08-03T02:49:50;19.90;99.90
981;DHT22;479;53.514;9.994;2022-08-03T02:52:19;19.90;99.90
981;DHT22;479;53.514;9.994;2022-08-03T02:54:51;19.80;99.90
981;DHT22;479;53.514;9.994;2022-08-03T02:57:19;19.80;99.90
981;DHT22;479;53.514;9.994;2022-08-03T02:59:48;19.90;99.90
981;DHT22;479;53.514;9.994;2022-08-03T03:02:15;19.80;99.90
981;DHT22;479;53.514;9.994;2022-08-03T03:04:44;19.80;99.90
981;DHT22;479;53.514;9.994;2022-08-03T03:07:13;19.80;99.90
981;DHT22;479;53.514;9.994;2022-08-03T03:09:41;19.70;99.90
981;DHT22;479;53.514;9.994;2022-08-03T03:12:10;19.80;99.90
981;DHT22;479;53.514;9.994;2022-08-03T03:14:38;19.80;99.90
981;DHT22;479;53.514;9.994;2022-08-03T03:17:07;19.80;99.90
981;DHT22;479;53.514;9.994;2022-08-03T03:19:36;19.70;99.90
981;DHT22;479;53.514;9.994;2022-08-03T03:22:04;19.80;99.90
981;DHT22;479;53.514;9.994;2022-08-03T03:24:34;19.80;99.90
981;DHT22;479;53.514;9.994;2022-08-03T03:27:02;19.70;99.90
981;DHT22;479;53.514;9.994;2022-08-03T03:29:30;19.70;99.90
981;DHT22;479;53.514;9.994;2022-08-03T03:32:00;19.70;99.90
981;DHT22;479;53.514;9.994;2022-08-03T03:34:28;19.70;99.90
981;DHT22;479;53.514;9.994;2022-08-03T03:36:56;19.70;99.90
981;DHT22;479;53.514;9.994;2022-08-03T03:39:23;19.70;99.90
981;DHT22;479;53.514;9.994;2022-08-03T03:41:51;19.60;99.90
981;DHT22;479;53.514;9.994;2022-08-03T03:44:18;19.60;99.90
981;DHT22;479;53.514;9.994;2022-08-03T03:46:45;19.50;99.90
981;DHT22;479;53.514;9.994;2022-08-03T03:49:12;19.50;99.90
981;DHT22;479;53.514;9.994;2022-08-03T03:51:40;19.60;99.90
981;DHT22;479;53.514;9.994;2022-08-03T03:54:07;19.50;99.90
981;DHT22;479;53.514;9.994;2022-08-03T03:56:34;19.50;99.90
981;DHT22;479;53.514;9.994;2022-08-03T03:59:02;19.50;99.90
981;DHT22;479;53.514;9.994;2022-08-03T04:01:29;19.60;99.90
981;DHT22;479;53.514;9.994;2022-08-03T04:03:56;19.50;99.90
981;DHT22;479;53.514;9.994;2022-08-03T04:06:43;19.50;99.90
981;DHT22;479;53.514;9.994;2022-08-03T04:09:29;19.50;99.90
981;DHT22;479;53.514;9.994;2022-08-03T04:12:15;19.60;99.90
981;DHT22;479;53.514;9.994;2022-08-03T04:14:45;19.50;99.90
981;DHT22;479;53.514;9.994;2022-08-03T04:17:14;19.50;99.90
981;DHT22;479;53.514;9.994;2022-08-03T04:19:44;19.50;99.90
981;DHT22;479;53.514;9.994;2022-08-03T04:22:14;19.60;99.90
981;DHT22;479;53.514;9.994;2022-08-03T04:24:46;19.60;99.90
981;DHT22;479;53.514;9.994;2022-08-03T04:27:17;19.60;99.90
981;DHT22;479;53.514;9.994;2022-08-03T04:29:48;19.70;99.90
981;DHT22;479;53.514;9.994;2022-08-03T04:32:17;19.70;99.90
981;DHT22;479;53.514;9.994;2022-08-03T04:34:45;19.70;99.90
981;DHT22;479;53.514;9.994;2022-08-03T04:37:20;19.70;99.90
981;DHT22;479;53.514;9.994;2022-08-03T04:39:51;19.70;99.90
981;DHT22;479;53.514;9.994;2022-08-03T04:42:20;19.80;99.90
981;DHT22;479;53.514;9.994;2022-08-03T04:44:50;19.80;99.90
981;DHT22;479;53.514;9.994;2022-08-03T04:47:18;19.80;99.90
981;DHT22;479;53.514;9.994;2022-08-03T04:49:45;19.90;99.90
981;DHT22;479;53.514;9.994;2022-08-03T04:52:13;19.90;99.90
981;DHT22;479;53.514;9.994;2022-08-03T04:54:40;20.00;99.90
981;DHT22;479;53.514;9.994;2022-08-03T04:57:08;20.00;99.90
981;DHT22;479;53.514;9.994;2022-08-03T04:59:35;20.00;99.90
981;DHT22;479;53.514;9.994;2022-08-03T05:02:03;20.00;99.90
981;DHT22;479;53.514;9.994;2022-08-03T05:04:31;20.00;99.90
981;DHT22;479;53.514;9.994;2022-08-03T05:06:58;20.00;99.90
981;DHT22;479;53.514;9.994;2022-08-03T05:09:25;20.00;99.90
981;DHT22;479;53.514;9.994;2022-08-03T05:11:52;20.10;99.90
981;DHT22;479;53.514;9.994;2022-08-03T05:14:19;20.20;99.90
981;DHT22;479;53.514;9.994;2022-08-03T05:16:45;20.20;99.90
981;DHT22;479;53.514;9.994;2022-08-03T05:19:14;20.30;99.90
981;DHT22;479;53.514;9.994;2022-08-03T05:21:40;20.40;99.90
981;DHT22;479;53.514;9.994;2022-08-03T05:24:07;20.40;99.90
981;DHT22;479;53.514;9.994;2022-08-03T05:26:34;20.50;99.90
981;DHT22;479;53.514;9.994;2022-08-03T05:29:02;20.60;99.90
981;DHT22;479;53.514;9.994;2022-08-03T05:31:28;20.60;99.90
981;DHT22;479;53.514;9.994;2022-08-03T05:33:56;20.70;99.90
981;DHT22;479;53.514;9.994;2022-08-03T05:36:24;20.80;99.90
981;DHT22;479;53.514;9.994;2022-08-03T05:38:51;20.80;99.90
981;DHT22;479;53.514;9.994;2022-08-03T05:41:18;20.90;99.90
981;DHT22;479;53.514;9.994;2022-08-03T05:43:45;21.00;99.90
981;DHT22;479;53.514;9.994;2022-08-03T05:46:12;21.10;99.90
981;DHT22;479;53.514;9.994;2022-08-03T05:48:39;21.20;99.90
981;DHT22;479;53.514;9.994;2022-08-03T05:51:06;21.20;99.90
981;DHT22;479;53.514;9.994;2022-08-03T05:53:37;21.20;99.90
981;DHT22;479;53.514;9.994;2022-08-03T05:56:04;21.40;99.90
981;DHT22;479;53.514;9.994;2022-08-03T05:58:31;21.50;99.90
981;DHT22;479;53.514;9.994;2022-08-03T06:00:58;21.60;99.90
981;DHT22;479;53.514;9.994;2022-08-03T06:03:25;21.60;99.90
981;DHT22;479;53.514;9.994;2022-08-03T06:05:52;21.70;99.90
981;DHT22;479;53.514;9.994;2022-08-03T06:08:20;21.80;99.90
981;DHT22;479;53.514;9.994;2022-08-03T06:10:48;21.90;99.90
981;DHT22;479;53.514;9.994;2022-08-03T06:13:15;22.10;99.90
981;DHT22;479;53.514;9.994;2022-08-03T06:15:42;22.20;99.90
981;DHT22;479;53.514;9.994;2022-08-03T06:18:09;22.40;99.90
981;DHT22;479;53.514;9.994;2022-08-03T06:20:36;22.50;99.90
981;DHT22;479;53.514;9.994;2022-08-03T06:23:03;22.60;99.90
981;DHT22;479;53.514;9.994;2022-08-03T06:25:30;22.70;99.90
981;DHT22;479;53.514;9.994;2022-08-03T06:27:58;22.80;99.90
981;DHT22;479;53.514;9.994;2022-08-03T06:30:25;23.00;99.90
981;DHT22;479;53.514;9.994;2022-08-03T06:32:52;23.10;99.90
981;DHT22;479;53.514;9.994;2022-08-03T06:35:19;23.10;99.90
981;DHT22;479;53.514;9.994;2022-08-03T06:37:48;23.30;99.90
981;DHT22;479;53.514;9.994;2022-08-03T06:40:17;23.40;99.90
981;DHT22;479;53.514;9.994;2022-08-03T06:42:44;23.50;99.90
981;DHT22;479;53.514;9.994;2022-08-03T06:45:12;23.70;99.90
981;DHT22;479;53.514;9.994;2022-08-03T06:47:39;24.00;99.90
981;DHT22;479;53.514;9.994;2022-08-03T06:50:07;24.10;99.90
981;DHT22;479;53.514;9.994;2022-08-03T06:52:35;24.10;99.90
981;DHT22;479;53.514;9.994;2022-08-03T06:55:03;24.20;99.90
981;DHT22;479;53.514;9.994;2022-08-03T06:57:30;24.30;99.90
981;DHT22;479;53.514;9.994;2022-08-03T06:59:56;24.50;99.90
981;DHT22;479;53.514;9.994;2022-08-03T07:02:28;24.60;99.90
981;DHT22;479;53.514;9.994;2022-08-03T07:04:55;24.80;99.90
981;DHT22;479;53.514;9.994;2022-08-03T07:07:22;25.00;99.90
981;DHT22;479;53.514;9.994;2022-08-03T07:09:49;25.20;99.90
981;DHT22;479;53.514;9.994;2022-08-03T07:12:16;25.40;99.90
981;DHT22;479;53.514;9.994;2022-08-03T07:14:43;25.50;99.90
981;DHT22;479;53.514;9.994;2022-08-03T07:17:10;25.80;99.90
981;DHT22;479;53.514;9.994;2022-08-03T07:19:38;25.80;99.90
981;DHT22;479;53.514;9.994;2022-08-03T07:22:05;25.80;99.90
981;DHT22;479;53.514;9.994;2022-08-03T07:24:33;25.90;99.90
981;DHT22;479;53.514;9.994;2022-08-03T07:27:00;26.00;99.90
981;DHT22;479;53.514;9.994;2022-08-03T07:29:27;26.10;99.90
981;DHT22;479;53.514;9.994;2022-08-03T07:31:54;26.20;99.60
981;DHT22;479;53.514;9.994;2022-08-03T07:34:21;26.20;99.40
981;DHT22;479;53.514;9.994;2022-08-03T07:36:49;26.40;99.30
981;DHT22;479;53.514;9.994;2022-08-03T07:39:16;26.60;97.80
981;DHT22;479;53.514;9.994;2022-08-03T07:41:43;26.60;97.50
981;DHT22;479;53.514;9.994;2022-08-03T07:44:10;26.80;96.20
981;DHT22;479;53.514;9.994;2022-08-03T07:46:37;27.10;95.00
981;DHT22;479;53.514;9.994;2022-08-03T07:49:04;27.20;94.80
981;DHT22;479;53.514;9.994;2022-08-03T07:51:31;27.40;94.90
981;DHT22;479;53.514;9.994;2022-08-03T07:53:59;27.50;92.60
981;DHT22;479;53.514;9.994;2022-08-03T07:56:26;27.80;90.20
981;DHT22;479;53.514;9.994;2022-08-03T07:58:53;28.10;88.60
981;DHT22;479;53.514;9.994;2022-08-03T08:01:21;28.20;88.10
981;DHT22;479;53.514;9.994;2022-08-03T08:03:48;28.30;85.50
981;DHT22;479;53.514;9.994;2022-08-03T08:06:15;28.40;80.40
981;DHT22;479;53.514;9.994;2022-08-03T08:08:43;28.30;81.40
981;DHT22;479;53.514;9.994;2022-08-03T08:11:11;28.30;80.60
981;DHT22;479;53.514;9.994;2022-08-03T08:13:38;28.20;78.10
981;DHT22;479;53.514;9.994;2022-08-03T08:16:05;28.50;78.60
981;DHT22;479;53.514;9.994;2022-08-03T08:18:32;28.40;78.70
981;DHT22;479;53.514;9.994;2022-08-03T08:20:59;28.30;77.50
981;DHT22;479;53.514;9.994;2022-08-03T08:23:28;28.30;77.70
981;DHT22;479;53.514;9.994;2022-08-03T08:25:55;28.40;78.00
981;DHT22;479;53.514;9.994;2022-08-03T08:28:23;28.50;78.70
981;DHT22;479;53.514;9.994;2022-08-03T08:30:50;28.40;78.90
981;DHT22;479;53.514;9.994;2022-08-03T08:33:17;28.40;79.70
981;DHT22;479;53.514;9.994;2022-08-03T08:35:44;28.20;79.50
981;DHT22;479;53.514;9.994;2022-08-03T08:38:11;28.40;81.50
981;DHT22;479;53.514;9.994;2022-08-03T08:40:38;28.70;79.80
981;DHT22;479;53.514;9.994;2022-08-03T08:43:06;28.90;78.60
981;DHT22;479;53.514;9.994;2022-08-03T08:45:34;29.30;76.60
981;DHT22;479;53.514;9.994;2022-08-03T08:48:02;29.30;75.20
981;DHT22;479;53.514;9.994;2022-08-03T08:50:29;29.40;74.30
981;DHT22;479;53.514;9.994;2022-08-03T08:52:59;29.70;73.80
981;DHT22;479;53.514;9.994;2022-08-03T08:55:26;30.20;71.80
981;DHT22;479;53.514;9.994;2022-08-03T08:57:57;30.50;70.10
981;DHT22;479;53.514;9.994;2022-08-03T09:00:24;30.70;69.60
981;DHT22;479;53.514;9.994;2022-08-03T09:02:52;31.20;67.10
981;DHT22;479;53.514;9.994;2022-08-03T09:05:19;31.40;65.30
981;DHT22;479;53.514;9.994;2022-08-03T09:07:47;31.20;65.00
981;DHT22;479;53.514;9.994;2022-08-03T09:10:16;31.20;65.30
981;DHT22;479;53.514;9.994;2022-08-03T09:12:45;31.20;64.50
981;DHT22;479;53.514;9.994;2022-08-03T09:15:17;31.10;64.90
981;DHT22;479;53.514;9.994;2022-08-03T09:17:44;31.20;64.50
981;DHT22;479;53.514;9.994;2022-08-03T09:20:13;30.70;64.70
981;DHT22;479;53.514;9.994;2022-08-03T09:22:58;30.90;65.30
981;DHT22;479;53.514;9.994;2022-08-03T09:25:27;30.90;64.90
981;DHT22;479;53.514;9.994;2022-08-03T09:27:54;30.90;65.30
981;DHT22;479;53.514;9.994;2022-08-03T09:30:29;31.00;65.40
981;DHT22;479;53.514;9.994;2022-08-03T09:32:59;31.50;64.70
981;DHT22;479;53.514;9.994;2022-08-03T09:35:28;31.60;64.10
981;DHT22;479;53.514;9.994;2022-08-03T09:38:09;31.80;63.40
981;DHT22;479;53.514;9.994;2022-08-03T09:40:36;32.10;62.40
981;DHT22;479;53.514;9.994;2022-08-03T09:43:03;32.10;60.80
981;DHT22;479;53.514;9.994;2022-08-03T09:45:33;31.60;60.70
981;DHT22;479;53.514;9.994;2022-08-03T09:48:22;31.30;61.90
981;DHT22;479;53.514;9.994;2022-08-03T09:50:52;31.40;62.50
981;DHT22;479;53.514;9.994;2022-08-03T09:53:19;31.80;61.30
981;DHT22;479;53.514;9.994;2022-08-03T09:55:50;32.10;60.80
981;DHT22;479;53.514;9.994;2022-08-03T09:58:19;32.30;59.70
981;DHT22;479;53.514;9.994;2022-08-03T10:00:52;32.70;58.90
981;DHT22;479;53.514;9.994;2022-08-03T10:03:19;32.50;57.90
981;DHT22;479;53.514;9.994;2022-08-03T10:05:46;32.30;58.20
981;DHT22;479;53.514;9.994;2022-08-03T10:08:16;32.20;58.70
981;DHT22;479;53.514;9.994;2022-08-03T10:10:44;32.20;58.40
981;DHT22;479;53.514;9.994;2022-08-03T10:13:12;32.20;58.80
981;DHT22;479;53.514;9.994;2022-08-03T10:15:40;32.30;58.30
981;DHT22;479;53.514;9.994;2022-08-03T10:18:07;32.10;58.20
981;DHT22;479;53.514;9.994;2022-08-03T10:20:36;32.20;58.20
981;DHT22;479;53.514;9.994;2022-08-03T10:23:04;32.00;58.50
981;DHT22;479;53.514;9.994;2022-08-03T10:25:33;32.00;58.30
981;DHT22;479;53.514;9.994;2022-08-03T10:28:02;31.90;58.90
981;DHT22;479;53.514;9.994;2022-08-03T10:30:31;32.10;58.30
981;DHT22;479;53.514;9.994;2022-08-03T10:33:02;32.10;58.20
981;DHT22;479;53.514;9.994;2022-08-03T10:35:31;31.90;58.60
981;DHT22;479;53.514;9.994;2022-08-03T10:38:00;32.30;58.30
981;DHT22;479;53.514;9.994;2022-08-03T10:40:30;32.20;57.90
981;DHT22;479;53.514;9.994;2022-08-03T10:43:02;32.70;58.10
981;DHT22;479;53.514;9.994;2022-08-03T10:45:33;32.90;57.20
981;DHT22;479;53.514;9.994;2022-08-03T10:48:02;32.40;56.80
981;DHT22;479;53.514;9.994;2022-08-03T10:50:30;32.50;57.40
981;DHT22;479;53.514;9.994;2022-08-03T10:52:58;32.60;57.50
981;DHT22;479;53.514;9.994;2022-08-03T10:55:30;32.90;57.20
981;DHT22;479;53.514;9.994;2022-08-03T10:58:48;32.80;56.60
981;DHT22;479;53.514;9.994;2022-08-03T11:01:16;32.80;56.50
981;DHT22;479;53.514;9.994;2022-08-03T11:04:13;32.70;56.80
981;DHT22;479;53.514;9.994;2022-08-03T11:06:40;32.80;56.60
981;DHT22;479;53.514;9.994;2022-08-03T11:09:15;32.80;54.60
981;DHT22;479;53.514;9.994;2022-08-03T11:11:45;32.40;55.10
981;DHT22;479;53.514;9.994;2022-08-03T11:14:16;32.50;55.70
981;DHT22;479;53.514;9.994;2022-08-03T11:16:47;32.30;56.70
981;DHT22;479;53.514;9.994;2022-08-03T11:19:16;32.80;56.00
981;DHT22;479;53.514;9.994;2022-08-03T11:21:57;32.80;56.00
981;DHT22;479;53.514;9.994;2022-08-03T11:24:56;32.80;55.80
981;DHT22;479;53.514;9.994;2022-08-03T11:27:25;32.50;55.90
981;DHT22;479;53.514;9.994;2022-08-03T11:29:58;32.70;56.50
981;DHT22;479;53.514;9.994;2022-08-03T11:32:51;32.20;56.30
981;DHT22;479;53.514;9.994;2022-08-03T11:35:20;31.90;57.70
981;DHT22;479;53.514;9.994;2022-08-03T11:38:08;32.00;57.90
981;DHT22;479;53.514;9.994;2022-08-03T11:40:41;32.30;57.20
981;DHT22;479;53.514;9.994;2022-08-03T11:43:43;32.00;56.10
981;DHT22;479;53.514;9.994;2022-08-03T11:46:03;31.70;56.60
981;DHT22;479;53.514;9.994;2022-08-03T11:48:33;31.80;57.20
981;DHT22;479;53.514;9.994;2022-08-03T11:51:01;31.50;57.00
981;DHT22;479;53.514;9.994;2022-08-03T11:53:29;31.40;57.00
981;DHT22;479;53.514;9.994;2022-08-03T11:55:58;31.40;57.20
981;DHT22;479;53.514;9.994;2022-08-03T11:58:26;31.40;57.60
981;DHT22;479;53.514;9.994;2022-08-03T12:01:04;31.50;57.20
981;DHT22;479;53.514;9.994;2022-08-03T12:03:32;31.70;56.50
981;DHT22;479;53.514;9.994;2022-08-03T12:05:59;31.70;56.90
981;DHT22;479;53.514;9.994;2022-08-03T12:08:31;31.70;56.90
981;DHT22;479;53.514;9.994;2022-08-03T12:11:00;31.70;57.10
981;DHT22;479;53.514;9.994;2022-08-03T12:13:40;32.00;56.40
981;DHT22;479;53.514;9.994;2022-08-03T12:16:08;31.80;55.80
981;DHT22;479;53.514;9.994;2022-08-03T12:18:35;31.80;55.50
981;DHT22;479;53.514;9.994;2022-08-03T12:21:04;31.90;55.10
981;DHT22;479;53.514;9.994;2022-08-03T12:23:31;31.60;55.10
981;DHT22;479;53.514;9.994;2022-08-03T12:26:01;31.60;55.30
981;DHT22;479;53.514;9.994;2022-08-03T12:28:28;31.60;56.10
981;DHT22;479;53.514;9.994;2022-08-03T12:31:00;31.70;56.40
981;DHT22;479;53.514;9.994;2022-08-03T12:33:29;31.80;56.60
981;DHT22;479;53.514;9.994;2022-08-03T12:36:05;31.90;56.20
981;DHT22;479;53.514;9.994;2022-08-03T12:38:33;31.60;55.80
981;DHT22;479;53.514;9.994;2022-08-03T12:41:04;31.50;56.10
981;DHT22;479;53.514;9.994;2022-08-03T12:43:33;31.50;55.90
981;DHT22;479;53.514;9.994;2022-08-03T12:46:11;31.70;55.90
981;DHT22;479;53.514;9.994;2022-08-03T12:49:04;31.70;56.00
981;DHT22;479;53.514;9.994;2022-08-03T12:51:33;31.80;56.00
981;DHT22;479;53.514;9.994;2022-08-03T12:54:01;31.70;55.80
981;DHT22;479;53.514;9.994;2022-08-03T12:56:29;31.60;55.70
981;DHT22;479;53.514;9.994;2022-08-03T12:58:56;31.70;55.90
981;DHT22;479;53.514;9.994;2022-08-03T13:01:23;31.80;56.00
981;DHT22;479;53.514;9.994;2022-08-03T13:03:52;32.00;55.90
981;DHT22;479;53.514;9.994;2022-08-03T13:06:21;31.80;56.30
981;DHT22;479;53.514;9.994;2022-08-03T13:08:49;31.70;56.20
981;DHT22;479;53.514;9.994;2022-08-03T13:11:21;31.70;56.80
981;DHT22;479;53.514;9.994;2022-08-03T13:13:48;31.80;56.80
981;DHT22;479;53.514;9.994;2022-08-03T13:16:15;31.90;55.80
981;DHT22;479;53.514;9.994;2022-08-03T13:18:42;32.00;55.70
981;DHT22;479;53.514;9.994;2022-08-03T13:21:12;31.80;55.80
981;DHT22;479;53.514;9.994;2022-08-03T13:23:41;31.70;55.80
981;DHT22;479;53.514;9.994;2022-08-03T13:26:08;31.50;56.40
981;DHT22;479;53.514;9.994;2022-08-03T13:28:35;31.40;56.60
981;DHT22;479;53.514;9.994;2022-08-03T13:31:02;31.30;56.90
981;DHT22;479;53.514;9.994;2022-08-03T13:33:29;31.30;56.80
981;DHT22;479;53.514;9.994;2022-08-03T13:35:56;31.30;57.30
981;DHT22;479;53.514;9.994;2022-08-03T13:38:23;31.40;57.20
981;DHT22;479;53.514;9.994;2022-08-03T13:40:52;31.40;57.10
981;DHT22;479;53.514;9.994;2022-08-03T13:43:19;31.40;57.40
981;DHT22;479;53.514;9.994;2022-08-03T13:45:46;31.30;57.20
981;DHT22;479;53.514;9.994;2022-08-03T13:48:13;31.30;57.00
981;DHT22;479;53.514;9.994;2022-08-03T13:50:39;31.30;57.40
981;DHT22;479;53.514;9.994;2022-08-03T13:53:06;31.40;57.40
981;DHT22;479;53.514;9.994;2022-08-03T13:55:33;31.50;57.50
981;DHT22;479;53.514;9.994;2022-08-03T13:58:01;31.40;57.40
981;DHT22;479;53.514;9.994;2022-08-03T14:00:28;31.30;57.00
981;DHT22;479;53.514;9.994;2022-08-03T14:02:57;31.20;57.10
981;DHT22;479;53.514;9.994;2022-08-03T14:05:24;31.40;57.50
981;DHT22;479;53.514;9.994;2022-08-03T14:07:51;31.30;57.40
981;DHT22;479;53.514;9.994;2022-08-03T14:10:18;31.30;57.50
981;DHT22;479;53.514;9.994;2022-08-03T14:12:45;31.30;57.20
981;DHT22;479;53.514;9.994;2022-08-03T14:15:13;31.40;56.90
981;DHT22;479;53.514;9.994;2022-08-03T14:17:40;31.40;56.90
981;DHT22;479;53.514;9.994;2022-08-03T14:20:08;31.50;56.80
981;DHT22;479;53.514;9.994;2022-08-03T14:22:37;31.50;56.20
981;DHT22;479;53.514;9.994;2022-08-03T14:25:05;31.50;56.30
981;DHT22;479;53.514;9.994;2022-08-03T14:27:32;31.50;56.40
981;DHT22;479;53.514;9.994;2022-08-03T14:29:59;31.40;56.30
981;DHT22;479;53.514;9.994;2022-08-03T14:32:27;31.30;56.70
981;DHT22;479;53.514;9.994;2022-08-03T14:34:54;31.10;56.90
981;DHT22;479;53.514;9.994;2022-08-03T14:37:21;31.10;56.90
981;DHT22;479;53.514;9.994;2022-08-03T14:39:47;31.20;57.20
981;DHT22;479;53.514;9.994;2022-08-03T14:42:14;31.20;57.10
981;DHT22;479;53.514;9.994;2022-08-03T14:44:41;31.30;57.20
981;DHT22;479;53.514;9.994;2022-08-03T14:47:08;31.30;56.60
981;DHT22;479;53.514;9.994;2022-08-03T14:49:36;31.50;56.90
981;DHT22;479;53.514;9.994;2022-08-03T14:52:04;31.50;56.80
981;DHT22;479;53.514;9.994;2022-08-03T14:54:31;31.50;56.40
981;DHT22;479;53.514;9.994;2022-08-03T14:56:58;31.50;56.70
981;DHT22;479;53.514;9.994;2022-08-03T14:59:25;31.40;56.90
981;DHT22;479;53.514;9.994;2022-08-03T15:01:52;31.40;56.80
981;DHT22;479;53.514;9.994;2022-08-03T15:04:20;31.40;57.10
981;DHT22;479;53.514;9.994;2022-08-03T15:06:48;31.40;57.20
981;DHT22;479;53.514;9.994;2022-08-03T15:09:15;31.50;57.30
981;DHT22;479;53.514;9.994;2022-08-03T15:11:42;31.50;57.50
981;DHT22;479;53.514;9.994;2022-08-03T15:14:09;31.50;56.60
981;DHT22;479;53.514;9.994;2022-08-03T15:16:36;31.50;56.80
981;DHT22;479;53.514;9.994;2022-08-03T15:19:04;31.30;56.90
981;DHT22;479;53.514;9.994;2022-08-03T15:21:31;31.30;56.80
981;DHT22;479;53.514;9.994;2022-08-03T15:23:59;31.30;56.60
981;DHT22;479;53.514;9.994;2022-08-03T15:26:26;31.30;56.50
981;DHT22;479;53.514;9.994;2022-08-03T15:28:53;31.30;56.30
981;DHT22;479;53.514;9.994;2022-08-03T15:31:20;31.20;56.00
981;DHT22;479;53.514;9.994;2022-08-03T15:33:48;31.20;56.20
981;DHT22;479;53.514;9.994;2022-08-03T15:36:16;31.00;56.50
981;DHT22;479;53.514;9.994;2022-08-03T15:38:43;31.00;56.60
981;DHT22;479;53.514;9.994;2022-08-03T15:41:12;30.90;56.60
981;DHT22;479;53.514;9.994;2022-08-03T15:43:39;31.00;56.70
981;DHT22;479;53.514;9.994;2022-08-03T15:46:06;31.00;55.90
981;DHT22;479;53.514;9.994;2022-08-03T15:48:33;31.00;56.00
981;DHT22;479;53.514;9.994;2022-08-03T15:51:00;30.90;55.90
981;DHT22;479;53.514;9.994;2022-08-03T15:53:27;30.80;55.60
981;DHT22;479;53.514;9.994;2022-08-03T15:55:54;30.70;55.60
981;DHT22;479;53.514;9.994;2022-08-03T15:58:22;30.70;55.40
981;DHT22;479;53.514;9.994;2022-08-03T16:00:49;30.70;55.80
981;DHT22;479;53.514;9.994;2022-08-03T16:03:16;30.80;55.70
981;DHT22;479;53.514;9.994;2022-08-03T16:05:42;30.80;55.30
981;DHT22;479;53.514;9.994;2022-08-03T16:08:10;30.90;55.40
981;DHT22;479;53.514;9.994;2022-08-03T16:10:37;30.90;54.80
981;DHT22;479;53.514;9.994;2022-08-03T16:13:05;30.90;55.40
981;DHT22;479;53.514;9.994;2022-08-03T16:15:33;30.90;54.80
981;DHT22;479;53.514;9.994;2022-08-03T16:18:00;30.80;54.80
981;DHT22;479;53.514;9.994;2022-08-03T16:20:27;30.80;55.10
981;DHT22;479;53.514;9.994;2022-08-03T16:22:54;30.70;55.50
981;DHT22;479;53.514;9.994;2022-08-03T16:25:21;30.70;55.20
981;DHT22;479;53.514;9.994;2022-08-03T16:27:48;30.70;55.30
981;DHT22;479;53.514;9.994;2022-08-03T16:30:15;30.70;55.00
981;DHT22;479;53.514;9.994;2022-08-03T16:32:44;30.60;55.40
981;DHT22;479;53.514;9.994;2022-08-03T16:35:12;30.70;55.70
981;DHT22;479;53.514;9.994;2022-08-03T16:37:39;30.70;55.70
981;DHT22;479;53.514;9.994;2022-08-03T16:40:09;30.70;55.40
981;DHT22;479;53.514;9.994;2022-08-03T16:42:37;30.70;55.50
981;DHT22;479;53.514;9.994;2022-08-03T16:45:05;30.70;55.50
981;DHT22;479;53.514;9.994;2022-08-03T16:47:32;30.70;55.50